Weather History for EHWO - March, 2013

Change the Weather History Date:

Saturday, March 30, 2013

  Actual Average Record
Temperature  
Mean Temperature 34 °F -  
Max Temperature 41 °F 56 °F 71 °F (2014)
Min Temperature 26 °F 39 °F 26 °F (2009)
Degree Days  
Heating Degree Days 32    
Moisture  
Dew Point 26 °F    
Average Humidity 78    
Maximum Humidity 100    
Minimum Humidity 52    
Precipitation  
Precipitation 0.00 in - - ()
Sea Level Pressure  
Sea Level Pressure 29.80 in    
Wind  
Wind Speed 5 mph ()    
Max Wind Speed 13 mph    
Max Gust Speed -    
Visibility 3.9 miles    
Events Fog , Snow    
Averages and records for this station are not official NWS values.
T = Trace of Precipitation, MM = Missing Value Source: Averaged Metar Reports

Daily Weather History Graph

Daily Weather History Graph

Search for Another Location

Airport or City:

Trip Planner

Search our weather history database for the weather conditions in past years. The results will help you decide how hot, cold, wet, or windy it might be!

Date:

Astronomy

Mar. 30, 2013 Rise Set
Actual Time 6:22 AM CET 7:12 PM CET
Civil Twilight 5:48 AM CET 7:46 PM CET
Nautical Twilight 5:08 AM CET 8:27 PM CET
Astronomical Twilight 4:25 AM CET 9:10 PM CET
Moon 11:30 PM CET (3/30) 7:40 AM CET (3/30)
Length of Visible Light 13h 57m
Length of Day
12h 50m
Waning Gibbous, 88% of the Moon is Illuminated
Mar 30
Waning Gibbous
Apr 3
Last Quarter
Apr 10
New
Apr 18
First Quarter
Apr 25
Full

Hourly Weather History & Observations

Time (CET) Temp. Windchill Dew Point Humidity Pressure Visibility Wind Dir Wind Speed Gust Speed Precip Events Conditions
12:25 AM 30.2 °F - 24.8 °F 80% 29.77 in 3.7 mi East 1.2 mph - N/A   Haze
12:55 AM 30.2 °F - 24.8 °F 80% 29.77 in 3.7 mi ENE 1.2 mph - N/A   Haze
1:25 AM 30.2 °F - 24.8 °F 80% 29.77 in 3.7 mi ENE 1.2 mph - N/A   Haze
1:55 AM 30.2 °F - 24.8 °F 80% 29.77 in 3.1 mi ENE 1.2 mph - N/A   Haze
2:25 AM 30.2 °F - 24.8 °F 80% 29.77 in 3.1 mi NE 1.2 mph - N/A   Haze
2:40 AM 30.2 °F - 24.8 °F 80% 29.77 in - ENE 1.2 mph - N/A   Haze
2:55 AM 28.4 °F 23.3 °F 24.8 °F 86% 29.77 in 2.2 mi NNE 4.6 mph - N/A   Mostly Cloudy
3:25 AM 26.6 °F 21.2 °F 24.8 °F 93% 29.77 in 1.7 mi NE 4.6 mph - N/A   Scattered Clouds
3:55 AM 26.6 °F 22.6 °F 24.8 °F 93% 29.77 in 1.6 mi NNE 3.5 mph - N/A   Overcast
4:25 AM 26.6 °F - 24.8 °F 93% 29.77 in 1.2 mi NE 1.2 mph - N/A   Overcast
4:55 AM 28.4 °F - 26.6 °F 93% 29.77 in 1.4 mi East 2.3 mph - N/A   Overcast
5:25 AM 26.6 °F - 23.0 °F 86% 29.77 in 1.2 mi NE 1.2 mph - N/A   Mostly Cloudy
5:55 AM 26.6 °F 21.2 °F 24.8 °F 93% 29.77 in 1.1 mi NNE 4.6 mph - N/A   Mostly Cloudy
5:56 AM 28.4 °F 22.2 °F 26.6 °F 93% 29.77 in 0.9 mi NNE 5.8 mph - N/A   Scattered Clouds
6:03 AM 28.4 °F 22.2 °F 26.6 °F 93% 29.77 in 1.0 mi NNE 5.8 mph - N/A   Scattered Clouds
6:05 AM 28.4 °F 21.2 °F 26.6 °F 93% 29.77 in 1.0 mi NE 6.9 mph - N/A   Mostly Cloudy
6:11 AM 28.4 °F 21.2 °F 26.6 °F 93% 29.77 in 0.9 mi NE 6.9 mph - N/A   Overcast
6:25 AM 28.4 °F 21.2 °F 26.6 °F 93% 29.77 in 0.8 mi NE 6.9 mph - N/A   Mostly Cloudy
6:37 AM 26.6 °F 21.2 °F 24.8 °F 93% 29.77 in 0.8 mi NE 4.6 mph - N/A   Mist
6:55 AM 26.6 °F - 24.8 °F 93% 29.77 in 0.6 mi NE 2.3 mph - N/A   Scattered Clouds
7:06 AM 26.6 °F - 24.8 °F 93% 29.77 in - NNE 1.2 mph - N/A Fog Light Freezing Fog
7:12 AM 26.6 °F - 24.8 °F 93% 29.77 in 0.6 mi NNE 1.2 mph - N/A   Mostly Cloudy
7:25 AM 26.6 °F - 24.8 °F 93% 29.77 in 0.8 mi NE 2.3 mph - N/A   Overcast
7:47 AM 28.4 °F 24.6 °F 26.6 °F 93% 29.77 in 1.0 mi NNE 3.5 mph - N/A   Mostly Cloudy
7:48 AM 28.4 °F 24.6 °F 26.6 °F 93% 29.77 in 0.9 mi NNE 3.5 mph - N/A   Mostly Cloudy
7:55 AM 28.4 °F 24.6 °F 28.4 °F 100% 29.77 in 0.9 mi NNE 3.5 mph - N/A   Mostly Cloudy
8:25 AM 30.2 °F 25.4 °F 28.4 °F 93% 29.77 in 0.9 mi NE 4.6 mph - N/A   Mostly Cloudy
8:28 AM 30.2 °F 25.4 °F 28.4 °F 93% 29.77 in 1.0 mi NE 4.6 mph - N/A   Scattered Clouds
8:44 AM 30.2 °F 25.4 °F 28.4 °F 93% 29.77 in 1.2 mi NE 4.6 mph - N/A   Partly Cloudy
8:55 AM 32.0 °F 27.5 °F 28.4 °F 87% 29.77 in 1.3 mi NNE 4.6 mph - N/A   Mostly Cloudy
9:25 AM 32.0 °F 24.8 °F 30.2 °F 93% 29.80 in 1.5 mi NNE 8.1 mph - N/A   Mostly Cloudy
9:28 AM 32.0 °F 25.6 °F 30.2 °F 93% 29.80 in 1.5 mi NNE 6.9 mph - N/A Snow Light Snow
9:30 AM 32.0 °F 26.4 °F 30.2 °F 93% 29.80 in 1.6 mi NNE 5.8 mph - N/A   Mostly Cloudy
9:45 AM 33.8 °F 27.0 °F 30.2 °F 87% 29.80 in - NE 8.1 mph - N/A   Mostly Cloudy
9:49 AM 33.8 °F 27.0 °F 30.2 °F 87% 29.80 in - NE 8.1 mph - N/A   Overcast
9:55 AM 33.8 °F 27.0 °F 30.2 °F 87% 29.80 in - NE 8.1 mph - N/A   Mostly Cloudy
10:00 AM 33.8 °F 26.4 °F 28.4 °F 81% 29.80 in 3.1 mi NE 9.2 mph - N/A   Partly Cloudy
10:10 AM 35.6 °F 29.2 °F 30.2 °F 81% 29.80 in 3.1 mi NE 8.1 mph - N/A   Haze
10:17 AM 35.6 °F 29.2 °F 30.2 °F 81% 29.80 in 3.7 mi ENE 8.1 mph - N/A   Haze
10:21 AM 35.6 °F 28.6 °F 28.4 °F 75% 29.80 in 3.7 mi ENE 9.2 mph - N/A   Haze
10:25 AM 35.6 °F 28.6 °F 28.4 °F 75% 29.80 in 3.7 mi East 9.2 mph - N/A   Haze
10:37 AM 35.6 °F 28.0 °F 28.4 °F 75% 29.80 in 3.7 mi ENE 10.4 mph - N/A   Haze
10:40 AM 35.6 °F 28.0 °F 28.4 °F 75% 29.80 in 4.3 mi East 10.4 mph - N/A   Haze
10:47 AM 35.6 °F 28.0 °F 28.4 °F 75% 29.77 in 4.3 mi East 10.4 mph - N/A   Haze
10:55 AM 35.6 °F 28.0 °F 26.6 °F 70% 29.80 in 4.3 mi ENE 10.4 mph - N/A   Haze
11:09 AM 35.6 °F 28.6 °F 26.6 °F 70% 29.80 in 5.0 mi NE 9.2 mph - N/A   Haze
11:16 AM 35.6 °F 28.0 °F 26.6 °F 70% 29.77 in 4.3 mi NE 10.4 mph - N/A   Haze
11:20 AM 35.6 °F 28.6 °F 26.6 °F 70% 29.77 in 5.0 mi NE 9.2 mph - N/A   Haze
11:25 AM 35.6 °F 29.2 °F 26.6 °F 70% 29.77 in 5.0 mi NE 8.1 mph - N/A   Haze
11:30 AM 37.4 °F 32.1 °F 26.6 °F 65% 29.77 in 5.0 mi NE 6.9 mph - N/A   Haze
11:31 AM 37.4 °F 31.4 °F 24.8 °F 60% 29.77 in 5.6 mi NE 8.1 mph - N/A   Haze
11:38 AM 37.4 °F 30.8 °F 24.8 °F 60% 29.77 in 5.6 mi NE 9.2 mph - N/A   Haze
11:51 AM 37.4 °F 30.8 °F 26.6 °F 65% 29.77 in 6.2 mi NE 9.2 mph - N/A   Mostly Cloudy
11:55 AM 37.4 °F 30.3 °F 26.6 °F 65% 29.77 in 6.2 mi NNE 10.4 mph - N/A   Overcast
11:59 AM 37.4 °F 30.3 °F 26.6 °F 65% 29.77 in 5.6 mi NE 10.4 mph - N/A   Haze
12:25 PM 39.2 °F 31.6 °F 24.8 °F 56% 29.77 in 6.2 mi NE 12.7 mph - N/A   Mostly Cloudy
12:55 PM 39.2 °F 32.5 °F 24.8 °F 56% 29.80 in 6.2 mi ENE 10.4 mph - N/A   Mostly Cloudy
1:25 PM 37.4 °F 29.3 °F 24.8 °F 60% 29.80 in 6.2 mi NNE 12.7 mph - N/A   Overcast
1:55 PM 39.2 °F 32.0 °F 23.0 °F 52% 29.80 in 6.2 mi NE 11.5 mph - N/A   Scattered Clouds
2:25 PM 41.0 °F 34.3 °F 24.8 °F 53% 29.80 in 6.2 mi ENE 11.5 mph - N/A   Partly Cloudy
2:55 PM 37.4 °F 29.3 °F 24.8 °F 60% 29.80 in 6.2 mi NNE 12.7 mph - N/A   Mostly Cloudy
3:25 PM 39.2 °F 33.6 °F 24.8 °F 56% 29.80 in 6.2 mi NNE 8.1 mph - N/A   Overcast
3:55 PM 39.2 °F 32.5 °F 24.8 °F 56% 29.80 in 6.2 mi NE 10.4 mph - N/A   Mostly Cloudy
4:25 PM 39.2 °F 33.0 °F 24.8 °F 56% 29.80 in 6.2 mi North 9.2 mph - N/A   Mostly Cloudy
4:55 PM 39.2 °F 33.0 °F 26.6 °F 61% 29.80 in 6.2 mi NNE 9.2 mph - N/A   Mostly Cloudy
5:25 PM 37.4 °F 32.1 °F 26.6 °F 65% 29.83 in 6.2 mi NNE 6.9 mph - N/A   Mostly Cloudy
5:55 PM 37.4 °F 33.8 °F 26.6 °F 65% 29.83 in 6.2 mi NNE 4.6 mph - N/A   Mostly Cloudy
6:25 PM 37.4 °F 32.1 °F 26.6 °F 65% 29.83 in 6.2 mi NNE 6.9 mph - N/A   Mostly Cloudy
6:35 PM 37.4 °F 31.4 °F 26.6 °F 65% 29.83 in 6.2 mi North 8.1 mph - N/A   Mostly Cloudy
6:43 PM 37.4 °F 30.8 °F 26.6 °F 65% 29.83 in 6.2 mi North 9.2 mph - N/A   Mostly Cloudy
6:55 PM 37.4 °F 30.8 °F 26.6 °F 65% 29.83 in 6.2 mi North 9.2 mph - N/A   Mostly Cloudy
7:25 PM 35.6 °F 29.9 °F 26.6 °F 70% 29.83 in 6.2 mi North 6.9 mph - N/A   Partly Cloudy
7:55 PM 33.8 °F 27.0 °F 26.6 °F 75% 29.86 in 6.2 mi North 8.1 mph - N/A   Unknown
8:25 PM 33.8 °F 26.4 °F 26.6 °F 75% 29.86 in 6.2 mi North 9.2 mph - N/A   Mostly Cloudy
8:55 PM 32.0 °F 25.6 °F 26.6 °F 80% 29.86 in 6.2 mi NNE 6.9 mph - N/A   Unknown
9:25 PM 32.0 °F 26.4 °F 24.8 °F 75% 29.86 in 6.2 mi NNE 5.8 mph - N/A   Unknown
9:55 PM 32.0 °F 25.6 °F 24.8 °F 75% 29.89 in 6.2 mi NNE 6.9 mph - N/A   Unknown
10:25 PM 30.2 °F 24.3 °F 24.8 °F 80% 29.89 in 6.2 mi NNE 5.8 mph - N/A   Unknown
10:55 PM 30.2 °F 24.3 °F 24.8 °F 80% 29.89 in 6.2 mi NNE 5.8 mph - N/A   Mostly Cloudy
11:25 PM 28.4 °F 23.3 °F 24.8 °F 86% 29.89 in 6.2 mi North 4.6 mph - N/A   Mostly Cloudy
11:55 PM 28.4 °F 22.2 °F 24.8 °F 86% 29.89 in 6.2 mi North 5.8 mph - N/A   Partly Cloudy